Time;durP1;ratioP1;P1;durP2;ratioP2;P2;SDS_P1;SDS_P2;PMS_P1;PMS_P2;Temp;Humidity;BMP_temperature;BMP_pressure;BME280_temperature;BME280_humidity;BME280_pressure;Samples;Min_cycle;Max_cycle;Signal;HPM_P1;HPM_P2
2021/12/05 00:24:15;;;;;;;17.33;3.40;;;4.40;99.90;;;;;;5096861;28;20038;-81
2021/12/05 00:26:50;;;;;;;16.05;3.03;;;4.40;99.90;;;;;;5112407;28;20476;-81
2021/12/05 01:09:32;;;;;;;16.67;3.10;;;4.20;99.90;;;;;;5112943;28;20487;-80
2021/12/05 01:15:10;;;;;;;15.80;2.90;;;4.20;99.90;;;;;;5030247;28;20053;-80
2021/12/05 01:17:58;;;;;;;21.50;3.20;;;4.20;99.90;;;;;;5029978;28;20033;-80
2021/12/05 01:20:24;;;;;;;25.73;3.38;;;4.20;99.90;;;;;;5079376;28;20051;-80
2021/12/05 01:23:06;;;;;;;14.52;2.80;;;4.10;99.90;;;;;;5062701;28;20063;-80
2021/12/05 01:28:40;;;;;;;17.42;2.47;;;4.10;99.90;;;;;;5075093;28;20041;-80
2021/12/05 01:31:19;;;;;;;14.73;2.70;;;4.10;99.90;;;;;;5078100;28;20043;-80
2021/12/05 01:34:11;;;;;;;20.70;2.95;;;4.10;99.90;;;;;;5062833;28;20029;-80
2021/12/05 01:50:14;;;;;;;19.77;3.05;;;4.00;99.90;;;;;;5078352;28;20077;-80
2021/12/05 02:07:40;;;;;;;18.27;3.00;;;4.00;99.90;;;;;;5102862;28;20043;-80
2021/12/05 02:29:27;;;;;;;15.07;2.42;;;3.90;99.90;;;;;;5086143;28;20038;-79
2021/12/05 02:41:27;;;;;;;13.30;2.30;;;3.80;99.90;;;;;;5069685;28;20143;-79
2021/12/05 02:44:12;;;;;;;19.40;2.83;;;3.80;99.90;;;;;;5114582;28;20080;-80
2021/12/05 02:46:41;;;;;;;19.50;2.70;;;3.90;99.90;;;;;;5082116;28;20482;-81
2021/12/05 02:49:10;;;;;;;11.55;2.63;;;3.90;99.90;;;;;;5097110;28;20027;-81
2021/12/05 02:51:36;;;;;;;21.02;3.25;;;4.00;99.90;;;;;;5080796;28;20129;-81
2021/12/05 02:54:12;;;;;;;14.57;2.67;;;4.00;99.90;;;;;;5079574;28;20058;-79
2021/12/05 02:56:43;;;;;;;26.90;3.20;;;4.00;99.90;;;;;;5080826;28;20396;-80
2021/12/05 02:59:38;;;;;;;14.30;2.97;;;4.00;99.90;;;;;;5080013;28;20479;-79
2021/12/05 03:02:14;;;;;;;19.02;2.88;;;4.00;99.90;;;;;;5083417;28;20484;-80
2021/12/05 03:04:45;;;;;;;14.40;2.42;;;4.00;99.90;;;;;;5084640;28;20028;-80
2021/12/05 03:07:12;;;;;;;13.23;2.30;;;4.00;99.90;;;;;;5075762;28;20035;-81
2021/12/05 03:09:40;;;;;;;9.25;2.63;;;4.00;99.90;;;;;;5086370;28;20497;-82
2021/12/05 03:12:10;;;;;;;14.68;2.70;;;4.00;99.90;;;;;;5112970;28;20023;-81
2021/12/05 03:14:36;;;;;;;;;;;4.00;99.90;;;;;;5096053;28;20105;-81
2021/12/05 03:17:02;;;;;;;10.50;2.22;;;4.00;99.90;;;;;;5075765;28;20359;-81
2021/12/05 03:19:27;;;;;;;11.65;2.53;;;4.00;99.90;;;;;;5066379;28;20739;-84
2021/12/05 03:21:53;;;;;;;9.05;2.20;;;4.00;99.90;;;;;;5062190;28;20028;-85
2021/12/05 03:24:21;;;;;;;13.68;2.55;;;3.90;99.90;;;;;;5059416;28;20032;-85
2021/12/05 03:26:50;;;;;;;13.93;2.65;;;3.90;99.90;;;;;;5102883;28;20061;-85
2021/12/05 03:29:19;;;;;;;14.40;2.35;;;3.90;99.90;;;;;;5059611;28;20097;-79
2021/12/05 03:31:46;;;;;;;11.38;2.88;;;3.90;99.90;;;;;;5062687;28;20034;-80
2021/12/05 03:34:15;;;;;;;10.73;2.33;;;3.90;99.90;;;;;;5114025;28;20061;-80
2021/12/05 03:36:45;;;;;;;9.85;2.55;;;3.90;99.90;;;;;;5082485;28;20091;-79
2021/12/05 03:39:12;;;;;;;8.82;2.25;;;3.90;99.90;;;;;;5087735;28;20079;-80
2021/12/05 03:41:40;;;;;;;12.20;2.35;;;3.90;99.90;;;;;;5101626;28;20027;-79
2021/12/05 03:44:07;;;;;;;13.00;2.25;;;3.90;99.90;;;;;;5095919;28;20024;-80
2021/12/05 03:46:34;;;;;;;13.98;2.45;;;3.90;99.90;;;;;;5078299;28;20053;-80
2021/12/05 03:49:05;;;;;;;11.40;2.30;;;3.90;99.90;;;;;;5095480;28;20106;-80
2021/12/05 03:51:34;;;;;;;12.48;2.22;;;3.90;99.90;;;;;;5095091;28;20411;-79
2021/12/05 03:54:00;;;;;;;10.05;2.40;;;4.00;99.90;;;;;;5095448;28;20018;-80
2021/12/05 03:56:27;;;;;;;10.38;2.70;;;3.90;99.90;;;;;;5061050;28;20028;-80
2021/12/05 03:58:54;;;;;;;17.05;2.70;;;4.00;99.90;;;;;;5075685;28;20024;-79
2021/12/05 04:01:20;;;;;;;12.07;2.80;;;4.00;99.90;;;;;;5063071;28;20059;-81
2021/12/05 04:03:47;;;;;;;7.72;1.98;;;4.10;99.90;;;;;;5111797;28;20024;-81
2021/12/05 04:06:17;;;;;;;11.75;2.40;;;4.10;99.90;;;;;;5095232;28;20020;-81
2021/12/05 04:08:43;;;;;;;12.25;2.75;;;4.10;99.90;;;;;;5095342;28;20051;-81
2021/12/05 04:11:17;;;;;;;11.15;2.10;;;4.20;99.90;;;;;;5100182;28;20050;-80
2021/12/05 04:13:44;;;;;;;10.43;2.03;;;4.20;99.90;;;;;;5083167;28;20023;-80
2021/12/05 04:16:14;;;;;;;8.57;2.30;;;4.20;99.90;;;;;;5078023;28;20383;-79
2021/12/05 04:18:41;;;;;;;10.52;2.10;;;4.20;99.90;;;;;;5089079;28;20066;-79
2021/12/05 04:21:07;;;;;;;8.15;2.10;;;4.30;99.90;;;;;;5088776;28;20027;-79
2021/12/05 04:23:33;;;;;;;12.05;2.03;;;4.30;99.90;;;;;;5074763;28;20032;-79
2021/12/05 04:25:59;;;;;;;9.63;2.35;;;4.30;99.90;;;;;;5089352;28;20053;-79
2021/12/05 04:28:25;;;;;;;20.02;2.42;;;4.30;99.90;;;;;;5106000;28;20043;-79
2021/12/05 04:30:51;;;;;;;10.85;1.92;;;4.30;99.90;;;;;;5068628;28;20480;-81
2021/12/05 04:33:18;;;;;;;6.78;2.08;;;4.30;99.90;;;;;;5049482;28;20028;-81
2021/12/05 04:35:44;;;;;;;8.13;2.25;;;4.30;99.90;;;;;;5113281;28;20020;-81
2021/12/05 04:38:09;;;;;;;15.10;2.38;;;4.40;99.90;;;;;;5078550;28;20054;-81
2021/12/05 04:40:35;;;;;;;8.93;2.10;;;4.40;99.90;;;;;;5094959;28;20028;-81
2021/12/05 04:43:03;;;;;;;8.70;2.13;;;4.40;99.90;;;;;;5095193;28;20040;-81
2021/12/05 04:45:31;;;;;;;9.18;1.90;;;4.50;99.90;;;;;;5094826;28;20108;-81
2021/12/05 04:47:59;;;;;;;6.40;1.48;;;4.50;99.90;;;;;;5093974;28;20031;-81
2021/12/05 04:50:28;;;;;;;10.38;2.25;;;4.50;99.90;;;;;;5094905;28;20040;-82
2021/12/05 04:52:55;;;;;;;15.88;1.90;;;4.50;99.90;;;;;;5103017;28;20107;-81
2021/12/05 04:55:21;;;;;;;6.72;2.17;;;4.50;99.90;;;;;;5088183;28;20380;-81
2021/12/05 04:57:48;;;;;;;6.00;1.80;;;4.50;99.90;;;;;;5078077;28;20030;-82
2021/12/05 05:00:22;;;;;;;9.32;1.90;;;4.50;99.90;;;;;;5061610;28;20038;-82
2021/12/05 05:02:48;;;;;;;7.28;1.67;;;4.40;99.90;;;;;;5094842;28;20510;-82
2021/12/05 05:05:14;;;;;;;11.80;2.25;;;4.50;99.90;;;;;;5081604;28;20032;-81
2021/12/05 05:07:42;;;;;;;9.23;2.08;;;4.50;99.90;;;;;;5097442;28;20093;-85
2021/12/05 05:10:15;;;;;;;10.85;2.05;;;4.50;99.90;;;;;;5078551;28;20035;-85
2021/12/05 05:12:40;;;;;;;8.35;1.73;;;4.50;99.90;;;;;;5109045;28;20081;-85
2021/12/05 05:15:07;;;;;;;5.95;1.60;;;4.50;99.90;;;;;;5097843;28;20019;-84
2021/12/05 05:17:34;;;;;;;9.25;1.67;;;4.50;99.90;;;;;;5115804;28;20080;-85
2021/12/05 05:20:06;;;;;;;7.43;1.60;;;4.60;99.90;;;;;;5062766;28;20479;-84
2021/12/05 05:22:42;;;;;;;6.85;1.75;;;4.50;99.90;;;;;;5077421;28;20039;-84
2021/12/05 05:50:54;;;;;;;7.53;1.42;;;4.60;99.90;;;;;;5096480;28;20051;-81
2021/12/05 05:53:20;;;;;;;8.95;1.83;;;4.70;99.90;;;;;;5096501;28;20028;-81
2021/12/05 05:55:46;;;;;;;6.32;1.58;;;4.60;99.90;;;;;;5081075;28;20856;-81
2021/12/05 05:58:14;;;;;;;9.45;1.30;;;4.60;99.90;;;;;;5064585;28;20438;-81
2021/12/05 06:03:38;;;;;;;11.25;1.50;;;4.60;99.90;;;;;;5024096;28;20485;-81
2021/12/05 06:06:08;;;;;;;9.05;1.48;;;4.60;99.90;;;;;;5061007;28;20111;-81
2021/12/05 06:08:38;;;;;;;5.60;1.40;;;4.60;99.90;;;;;;5095160;28;20064;-79
2021/12/05 06:11:07;;;;;;;;;;;4.60;99.90;;;;;;5097490;28;20024;-79
2021/12/05 06:13:35;;;;;;;8.43;1.23;;;4.60;99.90;;;;;;5115552;28;19911;-79
2021/12/05 06:16:02;;;;;;;8.82;1.73;;;4.60;99.90;;;;;;5097691;28;20028;-79
2021/12/05 06:18:28;;;;;;;4.82;1.08;;;4.70;99.90;;;;;;5092921;28;20048;-80
2021/12/05 06:20:54;;;;;;;7.90;1.20;;;4.60;99.90;;;;;;5097855;28;20081;-79
2021/12/05 06:23:20;;;;;;;8.90;1.45;;;4.60;99.90;;;;;;5080744;28;20032;-80
2021/12/05 06:25:48;;;;;;;7.05;1.00;;;4.60;99.90;;;;;;5057322;28;20085;-79
2021/12/05 06:28:16;;;;;;;7.60;1.50;;;4.70;99.90;;;;;;5074572;28;20559;-80
2021/12/05 06:42:00;;;;;;;6.18;1.35;;;4.70;99.90;;;;;;5110964;28;20070;-80
2021/12/05 06:47:12;;;;;;;6.53;1.17;;;4.70;99.90;;;;;;5115673;28;20038;-80
2021/12/05 06:49:40;;;;;;;5.60;1.27;;;4.70;99.90;;;;;;5080000;28;20027;-80
2021/12/05 06:52:07;;;;;;;5.53;1.30;;;4.70;99.90;;;;;;5096101;28;20412;-80
2021/12/05 06:54:37;;;;;;;8.98;1.40;;;4.70;99.90;;;;;;5076383;28;20127;-80
2021/12/05 06:57:03;;;;;;;6.15;1.35;;;4.60;99.90;;;;;;5077753;28;20035;-80
2021/12/05 06:59:29;;;;;;;6.68;1.85;;;4.60;99.90;;;;;;5063365;28;20028;-80
2021/12/05 07:01:55;;;;;;;6.70;1.33;;;4.60;99.90;;;;;;5073751;28;20141;-79
2021/12/05 07:06:51;;;;;;;7.93;1.38;;;4.70;99.90;;;;;;5061817;28;20067;-80
2021/12/05 07:09:17;;;;;;;8.73;1.30;;;4.60;99.90;;;;;;5059746;28;20070;-80
2021/12/05 07:11:58;;;;;;;5.60;1.50;;;4.60;99.90;;;;;;5076216;28;20052;-79
2021/12/05 07:17:08;;;;;;;6.75;1.40;;;4.60;99.90;;;;;;5099162;28;20054;-80
2021/12/05 07:19:44;;;;;;;6.35;1.50;;;4.60;99.90;;;;;;5062751;28;20049;-80
2021/12/05 07:22:22;;;;;;;6.22;1.23;;;4.60;99.90;;;;;;5095857;28;20081;-80
2021/12/05 07:24:52;;;;;;;2.55;1.35;;;4.60;99.90;;;;;;5065806;28;20024;-80
2021/12/05 07:40:21;;;;;;;8.80;1.60;;;4.60;99.90;;;;;;5095238;28;20476;-80
2021/12/05 07:43:42;;;;;;;6.50;2.15;;;4.60;99.90;;;;;;5080857;28;20032;-79
2021/12/05 07:46:08;;;;;;;9.15;2.85;;;4.60;99.90;;;;;;5066478;28;20023;-80
2021/12/05 07:48:37;;;;;;;7.00;2.60;;;4.70;99.90;;;;;;5078208;28;20034;-85
2021/12/05 07:51:21;;;;;;;8.15;2.90;;;4.70;99.90;;;;;;5078275;28;20048;-85
2021/12/05 07:56:29;;;;;;;6.97;2.50;;;4.70;99.90;;;;;;5113744;28;20111;-85
2021/12/05 08:15:19;;;;;;;5.00;3.03;;;4.80;99.90;;;;;;5098579;28;20542;-82
2021/12/05 08:17:53;;;;;;;10.32;2.97;;;4.80;99.90;;;;;;5079166;28;20118;-81
2021/12/05 08:20:45;;;;;;;4.78;2.42;;;4.80;99.90;;;;;;5113227;28;20023;-82
2021/12/05 08:23:12;;;;;;;5.85;2.28;;;4.80;99.90;;;;;;5077542;28;20044;-82
2021/12/05 08:25:43;;;;;;;10.68;2.35;;;4.80;99.90;;;;;;5092580;28;20154;-81
2021/12/05 08:30:41;;;;;;;7.65;2.00;;;4.90;99.90;;;;;;5110478;28;20627;-80
2021/12/05 08:33:34;;;;;;;6.45;2.40;;;4.90;99.90;;;;;;5074987;28;20032;-80
2021/12/05 08:44:40;;;;;;;4.78;2.47;;;5.00;99.90;;;;;;5033894;28;20041;-74
2021/12/05 10:35:25;;;;;;;4.03;2.10;;;5.70;99.90;;;;;;5112909;28;20437;-77
2021/12/05 10:37:07;;;;;;;;;;;5.70;99.90;;;;;;5098335;28;20024;-76
2021/12/05 10:39:33;;;;;;;3.30;1.98;;;5.70;99.90;;;;;;5087811;28;20350;-76
2021/12/05 10:42:12;;;;;;;5.75;1.95;;;5.60;99.90;;;;;;5071475;28;20051;-76
2021/12/05 10:44:45;;;;;;;4.93;2.00;;;5.60;99.90;;;;;;5112251;28;20035;-76
2021/12/05 10:47:12;;;;;;;3.97;2.20;;;5.60;99.90;;;;;;5063512;28;20036;-76
2021/12/05 10:49:40;;;;;;;3.72;1.88;;;5.70;99.90;;;;;;5070610;28;20514;-76
2021/12/05 10:52:13;;;;;;;2.97;2.20;;;5.60;99.90;;;;;;5095062;28;20047;-76
2021/12/05 10:54:39;;;;;;;3.88;2.00;;;5.60;99.90;;;;;;5089793;28;20027;-76
2021/12/05 10:57:05;;;;;;;3.22;2.22;;;5.60;99.90;;;;;;5111788;28;20022;-77
2021/12/05 10:59:38;;;;;;;3.47;2.03;;;5.60;99.90;;;;;;5074333;28;20059;-77
2021/12/05 11:02:07;;;;;;;4.53;2.83;;;5.70;99.90;;;;;;5085094;28;20096;-82
2021/12/05 11:04:35;;;;;;;4.57;2.05;;;5.60;99.90;;;;;;5113850;28;20119;-85
2021/12/05 11:07:01;;;;;;;4.03;2.78;;;5.60;99.90;;;;;;5092914;28;20089;-86
2021/12/05 11:09:29;;;;;;;3.92;2.40;;;5.60;99.90;;;;;;5091300;28;20032;-82
2021/12/05 11:12:00;;;;;;;4.78;2.50;;;5.60;99.90;;;;;;5099005;28;20032;-78
2021/12/05 11:14:33;;;;;;;3.63;2.42;;;5.60;99.90;;;;;;5094309;28;20031;-82
2021/12/05 11:17:01;;;;;;;3.15;2.40;;;5.60;99.90;;;;;;5084818;28;20031;-84
2021/12/05 11:19:43;;;;;;;3.70;2.20;;;5.60;99.90;;;;;;5093774;28;20020;-85
2021/12/05 11:22:17;;;;;;;4.07;2.40;;;5.60;99.90;;;;;;5093487;28;20024;-75
2021/12/05 11:24:50;;;;;;;5.13;2.50;;;5.70;99.90;;;;;;5100784;28;20023;-76
2021/12/05 11:27:27;;;;;;;3.30;2.30;;;5.70;99.90;;;;;;5098702;28;20028;-75
2021/12/05 11:30:03;;;;;;;3.53;2.83;;;5.70;99.90;;;;;;5107203;28;20563;-76
2021/12/05 11:32:43;;;;;;;3.35;2.60;;;5.70;99.90;;;;;;5080195;28;20035;-77
2021/12/05 11:35:30;;;;;;;3.90;2.53;;;5.80;99.90;;;;;;5094604;28;20112;-82
2021/12/05 11:38:06;;;;;;;4.45;2.60;;;5.80;99.90;;;;;;5113771;28;20098;-80
2021/12/05 11:40:59;;;;;;;2.90;2.15;;;5.80;99.90;;;;;;5081903;28;20539;-81
2021/12/05 11:43:32;;;;;;;4.30;2.25;;;5.80;99.90;;;;;;5075999;28;20127;-79
2021/12/05 11:46:13;;;;;;;4.93;2.53;;;5.90;99.90;;;;;;5095156;28;20457;-78
2021/12/05 11:48:50;;;;;;;4.05;2.50;;;5.90;99.90;;;;;;5087937;28;20028;-78
2021/12/05 11:51:30;;;;;;;4.80;2.00;;;5.90;99.90;;;;;;5097694;28;20036;-78
2021/12/05 11:54:00;;;;;;;2.78;2.00;;;6.00;99.90;;;;;;5083471;28;20036;-77
2021/12/05 11:56:43;;;;;;;3.30;1.98;;;6.10;99.90;;;;;;5101523;28;20384;-79
2021/12/05 11:59:35;;;;;;;5.78;2.42;;;6.10;99.90;;;;;;5108691;28;20027;-80
2021/12/05 12:02:10;;;;;;;3.40;1.90;;;6.10;99.90;;;;;;5076741;28;20039;-80
2021/12/05 12:04:53;;;;;;;3.50;1.88;;;6.20;99.90;;;;;;5088164;28;20035;-74
2021/12/05 12:07:50;;;;;;;5.63;2.00;;;6.20;99.90;;;;;;5077265;28;20024;-74
2021/12/05 12:10:33;;;;;;;12.80;7.35;;;6.20;99.90;;;;;;5098481;28;20024;-73
2021/12/05 12:13:01;;;;;;;5.35;3.08;;;6.10;99.90;;;;;;5094412;28;20024;-74
2021/12/05 12:15:29;;;;;;;6.43;2.72;;;6.10;99.90;;;;;;5104280;28;20035;-74
2021/12/05 12:18:03;;;;;;;4.70;2.60;;;6.20;99.90;;;;;;5103768;28;20028;-83
2021/12/05 12:20:30;;;;;;;3.03;1.90;;;6.10;99.90;;;;;;5092866;28;20024;-83
2021/12/05 12:22:56;;;;;;;3.55;1.95;;;6.20;99.90;;;;;;5095530;28;20027;-82
2021/12/05 12:25:26;;;;;;;4.25;1.90;;;6.20;99.90;;;;;;5095476;28;20020;-83
2021/12/05 12:27:51;;;;;;;4.15;2.35;;;6.20;99.90;;;;;;5095428;28;20072;-83
2021/12/05 12:30:24;;;;;;;4.38;2.30;;;6.20;99.90;;;;;;5095602;28;20062;-83
2021/12/05 12:32:53;;;;;;;4.25;2.13;;;6.20;99.90;;;;;;5113845;28;20030;-88
2021/12/05 12:35:24;;;;;;;4.85;2.40;;;6.20;99.90;;;;;;5079260;28;20119;-87
2021/12/05 12:37:58;;;;;;;3.97;2.25;;;6.20;99.90;;;;;;5095153;28;20023;-87
2021/12/05 12:40:33;;;;;;;3.80;2.58;;;6.20;99.90;;;;;;5095377;28;20499;-87
2021/12/05 12:42:59;;;;;;;5.15;2.38;;;6.20;99.90;;;;;;5095260;28;20028;-87
2021/12/05 12:45:24;;;;;;;3.08;2.22;;;6.10;99.90;;;;;;5079013;28;20395;-87
2021/12/05 12:47:51;;;;;;;4.00;2.70;;;6.10;99.90;;;;;;5113958;28;20035;-88
2021/12/05 12:50:35;;;;;;;2.67;2.15;;;6.10;99.90;;;;;;5113515;28;20434;-87
2021/12/05 12:53:17;;;;;;;5.55;2.30;;;6.10;99.90;;;;;;5113384;28;20484;-87
2021/12/05 12:55:56;;;;;;;4.90;2.78;;;6.10;99.90;;;;;;5095210;28;20076;-87
2021/12/05 12:58:43;;;;;;;6.55;2.80;;;6.20;99.90;;;;;;5094973;28;20545;-79
2021/12/05 13:04:50;;;;;;;3.15;2.78;;;6.30;99.90;;;;;;5078433;28;20027;-79
2021/12/05 13:10:08;;;;;;;6.00;3.10;;;6.30;99.90;;;;;;5113443;28;20020;-87
2021/12/05 13:12:51;;;;;;;9.30;2.83;;;6.30;99.90;;;;;;5095277;28;20123;-87
2021/12/05 13:15:20;;;;;;;5.78;3.03;;;6.40;99.90;;;;;;5095431;28;20502;-87
2021/12/05 13:17:48;;;;;;;5.13;2.97;;;6.40;99.90;;;;;;5095038;28;20027;-87
2021/12/05 13:20:29;;;;;;;6.43;2.95;;;6.40;99.90;;;;;;5095286;28;20028;-88
2021/12/05 13:23:12;;;;;;;4.15;2.92;;;6.40;99.90;;;;;;5095305;28;20097;-87
2021/12/05 13:26:01;;;;;;;3.95;2.95;;;6.40;99.90;;;;;;5097788;28;20035;-77
2021/12/05 13:28:34;;;;;;;3.83;2.87;;;6.40;99.90;;;;;;5098531;28;20028;-78
2021/12/05 13:31:20;;;;;;;6.25;3.30;;;6.40;99.90;;;;;;5098783;28;20475;-77
2021/12/05 13:33:46;;;;;;;4.13;3.25;;;6.40;99.90;;;;;;5098473;28;20024;-82
2021/12/05 13:36:30;;;;;;;4.18;3.50;;;6.40;99.90;;;;;;5116738;28;20062;-83
2021/12/05 13:38:56;;;;;;;4.97;3.45;;;6.40;99.90;;;;;;5098628;28;20114;-83
2021/12/05 13:41:22;;;;;;;6.88;3.88;;;6.40;99.90;;;;;;5116668;28;20424;-83
2021/12/05 13:43:58;;;;;;;5.32;3.50;;;6.40;99.90;;;;;;5097139;28;20075;-78
2021/12/05 13:46:31;;;;;;;5.90;3.40;;;6.40;99.90;;;;;;5092823;28;20027;-77
2021/12/05 13:48:57;;;;;;;5.60;3.47;;;6.40;99.90;;;;;;5097317;28;20072;-77
2021/12/05 13:51:24;;;;;;;5.88;3.38;;;6.30;99.90;;;;;;5081069;28;20112;-77
2021/12/05 13:53:52;;;;;;;5.45;3.97;;;6.40;99.90;;;;;;5064700;28;20115;-78
2021/12/05 13:56:24;;;;;;;9.13;4.07;;;6.30;99.90;;;;;;5097957;28;20022;-78
2021/12/05 13:58:53;;;;;;;8.77;3.83;;;6.30;99.90;;;;;;5097982;28;20034;-77
2021/12/05 14:01:28;;;;;;;5.25;3.60;;;6.20;99.90;;;;;;5098023;28;20028;-77
2021/12/05 14:04:15;;;;;;;7.22;3.90;;;6.30;99.90;;;;;;5116298;28;20107;-78
2021/12/05 14:06:44;;;;;;;7.47;4.28;;;6.30;99.90;;;;;;5097962;28;20019;-78
2021/12/05 14:09:22;;;;;;;8.23;4.53;;;6.30;99.90;;;;;;5097925;28;20027;-77
2021/12/05 14:11:52;;;;;;;9.85;5.03;;;6.30;99.90;;;;;;5097550;28;20020;-77
2021/12/05 14:14:21;;;;;;;8.75;4.57;;;6.30;99.90;;;;;;5115810;28;20066;-78
2021/12/05 14:16:49;;;;;;;9.65;4.80;;;6.30;99.90;;;;;;5086757;28;20028;-87
2021/12/05 14:19:18;;;;;;;8.88;4.95;;;6.30;99.90;;;;;;5076586;28;20032;-87
2021/12/05 14:21:50;;;;;;;9.43;4.95;;;6.20;99.90;;;;;;5077313;28;20036;-87
2021/12/05 14:24:18;;;;;;;8.55;4.50;;;6.30;99.90;;;;;;5094977;28;20025;-87
2021/12/05 14:26:50;;;;;;;7.88;4.75;;;6.20;99.90;;;;;;5094308;28;20114;-87
2021/12/05 14:29:23;;;;;;;8.07;4.55;;;6.20;99.90;;;;;;5075758;28;20035;-85
2021/12/05 14:32:04;;;;;;;6.57;3.90;;;6.20;99.90;;;;;;5094309;28;20012;-87
2021/12/05 14:34:30;;;;;;;10.35;4.30;;;6.20;99.90;;;;;;5076297;28;20040;-87
2021/12/05 14:37:02;;;;;;;7.03;3.95;;;6.20;99.90;;;;;;5093538;28;20016;-87
2021/12/05 14:39:31;;;;;;;8.18;4.13;;;6.20;99.90;;;;;;5094384;28;20024;-86
2021/12/05 14:42:00;;;;;;;7.43;4.13;;;6.20;99.90;;;;;;5094798;28;20087;-87
2021/12/05 14:44:27;;;;;;;6.40;4.30;;;6.20;99.90;;;;;;5093684;28;20063;-88
2021/12/05 14:47:11;;;;;;;5.65;3.90;;;6.20;99.90;;;;;;5057862;28;20545;-87
2021/12/05 14:49:43;;;;;;;4.68;3.45;;;6.20;99.90;;;;;;5074404;28;20074;-88
2021/12/05 14:52:25;;;;;;;4.53;3.60;;;6.10;99.90;;;;;;5071440;28;20044;-87
2021/12/05 14:54:53;;;;;;;6.43;3.40;;;6.10;99.90;;;;;;5082002;28;20025;-87
2021/12/05 14:57:22;;;;;;;7.68;3.75;;;6.10;99.90;;;;;;5083138;28;20028;-87
2021/12/05 14:59:50;;;;;;;6.88;3.20;;;6.10;99.90;;;;;;5074417;28;20028;-87
2021/12/05 15:02:19;;;;;;;9.27;3.70;;;6.10;99.90;;;;;;5071864;28;20488;-77
2021/12/05 15:04:52;;;;;;;7.75;3.90;;;6.10;99.90;;;;;;5073014;28;20039;-77
2021/12/05 15:07:19;;;;;;;5.85;3.25;;;6.10;99.90;;;;;;5072610;28;20373;-77
2021/12/05 15:09:47;;;;;;;7.93;4.15;;;6.10;99.90;;;;;;5073039;28;20481;-78
2021/12/05 15:12:19;;;;;;;5.47;3.50;;;6.10;99.90;;;;;;5056308;28;20568;-78
2021/12/05 15:14:48;;;;;;;9.27;4.22;;;6.10;99.90;;;;;;5074201;28;20481;-78
2021/12/05 15:17:16;;;;;;;6.60;3.55;;;6.10;99.90;;;;;;5072782;28;20048;-77
2021/12/05 15:19:45;;;;;;;7.13;3.60;;;6.00;99.90;;;;;;5074207;28;20021;-77
2021/12/05 15:22:12;;;;;;;10.07;4.25;;;6.00;99.90;;;;;;5072712;28;20024;-78
2021/12/05 15:24:39;;;;;;;7.93;4.65;;;6.10;99.90;;;;;;5072570;28;20032;-78
2021/12/05 15:27:13;;;;;;;7.65;3.67;;;6.00;99.90;;;;;;5072331;28;20032;-78
2021/12/05 15:29:48;;;;;;;5.00;3.22;;;5.90;99.90;;;;;;5075621;28;20061;-78
2021/12/05 15:32:23;;;;;;;9.98;4.18;;;5.90;99.90;;;;;;5093752;28;20105;-77
2021/12/05 15:35:01;;;;;;;5.80;4.47;;;5.80;99.90;;;;;;5093408;28;20068;-78
2021/12/05 15:37:27;;;;;;;10.32;6.18;;;5.80;99.90;;;;;;5083117;28;20039;-78
2021/12/05 15:39:55;;;;;;;9.48;5.78;;;5.70;99.90;;;;;;5089643;28;20046;-77
2021/12/05 15:42:26;;;;;;;11.63;6.63;;;5.70;99.90;;;;;;5087826;28;20107;-76
2021/12/05 15:44:54;;;;;;;10.18;6.40;;;5.70;99.90;;;;;;5079458;28;20036;-77
2021/12/05 15:47:31;;;;;;;13.73;6.78;;;5.70;99.90;;;;;;5079731;28;20020;-78
2021/12/05 15:50:09;;;;;;;9.48;5.97;;;5.60;99.90;;;;;;5092918;28;20066;-78
2021/12/05 15:52:48;;;;;;;10.88;5.63;;;5.70;99.90;;;;;;5071034;28;20073;-78
2021/12/05 15:55:34;;;;;;;;;;;5.70;99.90;;;;;;5073215;28;20013;-79
2021/12/05 15:58:31;;;;;;;9.98;5.57;;;5.60;99.90;;;;;;5070421;28;19905;-79
2021/12/05 16:01:04;;;;;;;9.48;4.70;;;5.60;99.90;;;;;;5040929;28;20037;-78
2021/12/05 16:03:51;;;;;;;10.25;5.60;;;5.60;99.90;;;;;;5068417;28;20194;-79
2021/12/05 16:06:20;;;;;;;8.30;5.43;;;5.60;99.90;;;;;;5071705;28;20078;-79
2021/12/05 16:08:49;;;;;;;11.27;6.88;;;5.60;99.90;;;;;;5071062;28;20032;-78
2021/12/05 16:11:21;;;;;;;9.38;6.53;;;5.60;99.90;;;;;;5071094;28;20025;-81
2021/12/05 16:13:50;;;;;;;9.57;7.32;;;5.60;99.90;;;;;;5050401;28;20386;-82
2021/12/05 16:16:22;;;;;;;18.42;9.95;;;5.60;99.90;;;;;;5066654;28;20025;-82
2021/12/05 16:18:52;;;;;;;15.40;9.63;;;5.60;99.90;;;;;;5067705;28;20031;-83
2021/12/05 16:21:27;;;;;;;15.98;9.80;;;5.60;99.90;;;;;;5062700;28;20028;-81
2021/12/05 16:24:05;;;;;;;13.07;8.65;;;5.60;99.90;;;;;;5087923;28;20040;-77
2021/12/05 16:26:31;;;;;;;13.07;6.85;;;5.60;99.90;;;;;;5053001;28;20025;-86
2021/12/05 16:29:07;;;;;;;12.95;6.15;;;5.60;99.90;;;;;;5051753;28;20071;-88
2021/12/05 16:31:42;;;;;;;10.32;6.30;;;5.60;99.90;;;;;;5055030;28;20115;-86
2021/12/05 16:34:14;;;;;;;12.07;6.72;;;5.60;99.90;;;;;;5071968;28;20020;-87
2021/12/05 16:36:45;;;;;;;10.45;6.22;;;5.70;99.90;;;;;;5066926;28;20025;-87
2021/12/05 16:39:22;;;;;;;12.13;7.13;;;5.60;99.90;;;;;;5058651;28;20476;-87
2021/12/05 16:41:49;;;;;;;11.73;7.47;;;5.60;99.90;;;;;;5063482;28;20024;-85
2021/12/05 16:44:28;;;;;;;15.88;8.93;;;5.60;99.90;;;;;;5071940;28;20035;-78
2021/12/05 16:47:04;;;;;;;15.98;9.77;;;5.60;99.90;;;;;;5071860;28;20044;-78
2021/12/05 16:49:43;;;;;;;20.65;9.77;;;5.60;99.90;;;;;;5070835;28;20469;-78
2021/12/05 16:52:21;;;;;;;23.50;11.43;;;5.60;99.90;;;;;;5102266;28;20075;-79
2021/12/05 16:54:54;;;;;;;16.75;10.48;;;5.60;99.90;;;;;;5094389;28;20038;-81
2021/12/05 16:57:28;;;;;;;16.65;9.75;;;5.60;99.90;;;;;;5096731;28;20162;-81
2021/12/05 16:59:59;;;;;;;16.83;9.82;;;5.60;99.90;;;;;;5093969;28;20024;-82
2021/12/05 17:02:27;;;;;;;16.42;10.80;;;5.60;99.90;;;;;;5097395;28;20033;-80
2021/12/05 17:05:04;;;;;;;15.55;8.93;;;5.60;99.90;;;;;;5085316;28;20020;-81
2021/12/05 17:07:55;;;;;;;13.23;8.73;;;5.60;99.90;;;;;;5094966;28;20031;-79
2021/12/05 17:10:20;;;;;;;15.20;10.00;;;5.60;99.90;;;;;;5097479;28;20111;-81
2021/12/05 17:12:52;;;;;;;15.32;10.20;;;5.60;99.90;;;;;;5089278;28;20157;-82
2021/12/05 17:15:22;;;;;;;22.00;12.13;;;5.70;99.90;;;;;;5090333;28;20028;-82
2021/12/05 17:17:50;;;;;;;18.48;10.38;;;5.60;99.90;;;;;;5087088;28;20090;-82
2021/12/05 17:20:26;;;;;;;15.80;9.52;;;5.60;99.90;;;;;;5096197;28;20472;-82
2021/12/05 17:23:09;;;;;;;14.90;9.82;;;5.60;99.90;;;;;;5083618;28;20510;-82
2021/12/05 17:25:41;;;;;;;20.38;9.35;;;5.60;99.90;;;;;;5100668;28;20020;-81
2021/12/05 17:28:13;;;;;;;18.80;10.43;;;5.60;99.90;;;;;;5100545;28;20028;-82
2021/12/05 17:30:55;;;;;;;18.77;9.63;;;5.60;99.90;;;;;;5108499;28;20031;-82
2021/12/05 17:33:41;;;;;;;13.20;9.05;;;5.60;99.90;;;;;;5092999;28;20801;-83
2021/12/05 17:36:16;;;;;;;16.60;9.55;;;5.60;99.90;;;;;;5095600;28;20034;-80
2021/12/05 17:38:42;;;;;;;21.42;9.82;;;5.50;99.90;;;;;;5093029;28;20023;-81
2021/12/05 17:41:08;;;;;;;14.20;8.52;;;5.60;99.90;;;;;;5095900;28;20122;-79
2021/12/05 17:43:33;;;;;;;15.93;8.75;;;5.50;99.90;;;;;;5115694;28;20114;-80
2021/12/05 17:45:59;;;;;;;12.45;8.43;;;5.50;99.90;;;;;;5116026;28;20085;-80
2021/12/05 17:48:25;;;;;;;14.07;9.98;;;5.60;99.90;;;;;;5115792;28;20132;-79
2021/12/05 17:50:53;;;;;;;13.40;8.70;;;5.60;99.90;;;;;;5107966;28;20123;-80
2021/12/05 17:53:29;;;;;;;57.63;23.52;;;5.60;99.90;;;;;;5107969;28;20024;-79
2021/12/05 17:56:01;;;;;;;38.67;17.10;;;5.60;99.90;;;;;;5104829;28;20012;-75
2021/12/05 18:03:52;;;;;;;17.35;9.63;;;5.60;99.90;;;;;;5108754;28;20035;-77
2021/12/05 18:06:18;;;;;;;14.07;8.07;;;5.70;99.90;;;;;;5096638;28;20028;-76
2021/12/05 18:08:44;;;;;;;18.20;10.77;;;5.70;99.90;;;;;;5094236;28;20038;-77
2021/12/05 18:11:15;;;;;;;17.85;10.55;;;5.60;99.90;;;;;;5115584;28;20074;-77
2021/12/05 18:13:41;;;;;;;13.48;9.70;;;5.60;99.90;;;;;;5096989;28;20023;-76
2021/12/05 18:16:14;;;;;;;19.10;11.15;;;5.60;99.90;;;;;;5097619;28;20031;-77
2021/12/05 18:18:41;;;;;;;16.95;11.07;;;5.60;99.90;;;;;;5097377;28;20115;-77
2021/12/05 18:21:10;;;;;;;18.00;12.07;;;5.60;99.90;;;;;;5092475;28;20125;-77
2021/12/05 18:23:37;;;;;;;18.33;11.95;;;5.60;99.90;;;;;;5097125;28;20032;-77
2021/12/05 18:26:04;;;;;;;21.15;12.57;;;5.60;99.90;;;;;;5092696;28;20035;-77
2021/12/05 18:28:31;;;;;;;19.73;12.65;;;5.60;99.90;;;;;;5106822;28;20393;-77
2021/12/05 18:30:57;;;;;;;19.73;13.38;;;5.60;99.90;;;;;;5080951;28;20849;-78
2021/12/05 18:33:26;;;;;;;20.95;12.35;;;5.60;99.90;;;;;;5085071;28;20033;-78
2021/12/05 18:35:52;;;;;;;19.42;13.07;;;5.60;99.90;;;;;;5101322;28;20038;-77
2021/12/05 18:38:22;;;;;;;19.27;11.60;;;5.60;99.90;;;;;;5093328;28;20072;-86
2021/12/05 18:40:50;;;;;;;21.15;13.35;;;5.60;99.90;;;;;;5091641;28;20050;-83
2021/12/05 18:43:18;;;;;;;18.70;11.68;;;5.60;99.90;;;;;;5112755;28;20028;-83
2021/12/05 18:45:44;;;;;;;15.60;10.77;;;5.60;99.90;;;;;;5096258;28;20035;-83
2021/12/05 18:48:11;;;;;;;16.40;9.95;;;5.60;99.90;;;;;;5102864;28;20083;-82
2021/12/05 18:50:40;;;;;;;17.45;11.10;;;5.60;99.90;;;;;;5079502;28;20062;-82
2021/12/05 18:53:06;;;;;;;18.33;11.10;;;5.70;99.90;;;;;;5110685;28;20020;-82